sensor_id;sensor_type;location;lat;lon;timestamp;pressure;altitude;pressure_sealevel;temperature;humidity
36092;BME280;22147;52.388;13.390;2023-02-26T00:00:17;100618.06;;;-2.09;100.00
36092;BME280;22147;52.388;13.390;2023-02-26T00:02:49;100625.09;;;-2.13;100.00
36092;BME280;22147;52.388;13.390;2023-02-26T00:05:20;100618.00;;;-2.14;100.00
36092;BME280;22147;52.388;13.390;2023-02-26T00:07:50;100614.94;;;-2.17;100.00
36092;BME280;22147;52.388;13.390;2023-02-26T00:10:20;100624.66;;;-2.21;100.00
36092;BME280;22147;52.388;13.390;2023-02-26T00:12:50;100621.59;;;-2.25;100.00
36092;BME280;22147;52.388;13.390;2023-02-26T00:15:21;100621.84;;;-2.27;100.00
36092;BME280;22147;52.388;13.390;2023-02-26T00:18:06;100631.09;;;-2.28;100.00
36092;BME280;22147;52.388;13.390;2023-02-26T00:20:39;100645.19;;;-2.31;100.00
36092;BME280;22147;52.388;13.390;2023-02-26T00:23:11;100642.47;;;-2.31;100.00
36092;BME280;22147;52.388;13.390;2023-02-26T00:25:44;100641.97;;;-2.28;100.00
36092;BME280;22147;52.388;13.390;2023-02-26T00:28:15;100652.84;;;-2.28;100.00
36092;BME280;22147;52.388;13.390;2023-02-26T00:30:46;100653.44;;;-2.26;100.00
36092;BME280;22147;52.388;13.390;2023-02-26T00:33:16;100665.38;;;-2.27;100.00
36092;BME280;22147;52.388;13.390;2023-02-26T00:35:50;100657.97;;;-2.14;100.00
36092;BME280;22147;52.388;13.390;2023-02-26T00:38:31;100666.41;;;-2.16;100.00
36092;BME280;22147;52.388;13.390;2023-02-26T00:41:04;100663.19;;;-2.13;100.00
36092;BME280;22147;52.388;13.390;2023-02-26T00:43:34;100668.56;;;-2.18;100.00
36092;BME280;22147;52.388;13.390;2023-02-26T00:46:29;100666.47;;;-2.11;100.00
36092;BME280;22147;52.388;13.390;2023-02-26T00:53:23;100682.38;;;-2.19;100.00
36092;BME280;22147;52.388;13.390;2023-02-26T00:56:00;100685.53;;;-2.11;100.00
36092;BME280;22147;52.388;13.390;2023-02-26T00:58:30;100676.56;;;-2.11;100.00
36092;BME280;22147;52.388;13.390;2023-02-26T01:01:00;100686.94;;;-2.08;100.00
36092;BME280;22147;52.388;13.390;2023-02-26T01:03:32;100687.75;;;-2.08;100.00
36092;BME280;22147;52.388;13.390;2023-02-26T01:06:02;100678.78;;;-2.08;100.00
36092;BME280;22147;52.388;13.390;2023-02-26T01:09:13;100693.47;;;-2.09;100.00
36092;BME280;22147;52.388;13.390;2023-02-26T01:11:45;100701.94;;;-2.06;100.00
36092;BME280;22147;52.388;13.390;2023-02-26T01:14:17;100706.09;;;-2.03;100.00
36092;BME280;22147;52.388;13.390;2023-02-26T01:19:53;100707.75;;;-2.02;100.00
36092;BME280;22147;52.388;13.390;2023-02-26T01:26:11;100716.47;;;-2.00;100.00
36092;BME280;22147;52.388;13.390;2023-02-26T01:28:46;100716.66;;;-1.90;100.00
36092;BME280;22147;52.388;13.390;2023-02-26T01:31:51;100711.81;;;-1.88;100.00
36092;BME280;22147;52.388;13.390;2023-02-26T01:37:40;100715.84;;;-1.90;100.00
36092;BME280;22147;52.388;13.390;2023-02-26T01:43:46;100721.47;;;-1.97;100.00
36092;BME280;22147;52.388;13.390;2023-02-26T01:47:19;100728.88;;;-1.92;100.00
36092;BME280;22147;52.388;13.390;2023-02-26T01:49:53;100724.25;;;-1.92;100.00
36092;BME280;22147;52.388;13.390;2023-02-26T01:55:26;100734.16;;;-1.86;100.00
36092;BME280;22147;52.388;13.390;2023-02-26T01:58:01;100742.34;;;-1.86;100.00
36092;BME280;22147;52.388;13.390;2023-02-26T02:00:32;100744.25;;;-1.86;100.00
36092;BME280;22147;52.388;13.390;2023-02-26T02:03:03;100748.59;;;-1.85;100.00
36092;BME280;22147;52.388;13.390;2023-02-26T02:05:45;100748.59;;;-1.85;100.00
36092;BME280;22147;52.388;13.390;2023-02-26T02:08:21;100757.94;;;-1.81;100.00
36092;BME280;22147;52.388;13.390;2023-02-26T02:10:52;100759.56;;;-1.80;100.00
36092;BME280;22147;52.388;13.390;2023-02-26T02:13:31;100759.09;;;-1.77;100.00
36092;BME280;22147;52.388;13.390;2023-02-26T02:17:07;100761.00;;;-1.77;100.00
36092;BME280;22147;52.388;13.390;2023-02-26T02:20:45;100766.34;;;-1.82;100.00
36092;BME280;22147;52.388;13.390;2023-02-26T02:23:44;100767.19;;;-1.82;100.00
36092;BME280;22147;52.388;13.390;2023-02-26T02:29:59;100782.44;;;-1.81;100.00
36092;BME280;22147;52.388;13.390;2023-02-26T02:32:53;100791.09;;;-1.84;100.00
36092;BME280;22147;52.388;13.390;2023-02-26T02:35:56;100794.84;;;-1.73;100.00
36092;BME280;22147;52.388;13.390;2023-02-26T02:38:48;100798.03;;;-1.76;100.00
36092;BME280;22147;52.388;13.390;2023-02-26T02:41:36;100803.25;;;-1.75;100.00
36092;BME280;22147;52.388;13.390;2023-02-26T02:44:31;100805.00;;;-1.69;100.00
36092;BME280;22147;52.388;13.390;2023-02-26T02:47:11;100794.44;;;-1.65;100.00
36092;BME280;22147;52.388;13.390;2023-02-26T02:52:54;100806.06;;;-1.70;100.00
36092;BME280;22147;52.388;13.390;2023-02-26T02:55:53;100807.97;;;-1.70;100.00
36092;BME280;22147;52.388;13.390;2023-02-26T02:58:38;100808.47;;;-1.73;100.00
36092;BME280;22147;52.388;13.390;2023-02-26T03:01:18;100819.50;;;-1.63;100.00
36092;BME280;22147;52.388;13.390;2023-02-26T03:04:10;100820.44;;;-1.57;100.00
36092;BME280;22147;52.388;13.390;2023-02-26T03:06:44;100821.25;;;-1.57;100.00
36092;BME280;22147;52.388;13.390;2023-02-26T03:09:15;100820.09;;;-1.61;100.00
36092;BME280;22147;52.388;13.390;2023-02-26T03:11:45;100819.78;;;-1.65;100.00
36092;BME280;22147;52.388;13.390;2023-02-26T03:14:16;100827.13;;;-1.65;100.00
36092;BME280;22147;52.388;13.390;2023-02-26T03:24:05;100837.91;;;-1.70;100.00
36092;BME280;22147;52.388;13.390;2023-02-26T03:27:13;100836.66;;;-1.79;100.00
36092;BME280;22147;52.388;13.390;2023-02-26T03:33:01;100861.59;;;-1.71;100.00
36092;BME280;22147;52.388;13.390;2023-02-26T03:35:55;100860.09;;;-1.78;100.00
36092;BME280;22147;52.388;13.390;2023-02-26T03:38:51;100860.22;;;-1.85;100.00
36092;BME280;22147;52.388;13.390;2023-02-26T03:44:57;100867.78;;;-1.75;100.00
36092;BME280;22147;52.388;13.390;2023-02-26T03:47:35;100875.97;;;-1.75;100.00
36092;BME280;22147;52.388;13.390;2023-02-26T03:50:40;100882.22;;;-1.75;100.00
36092;BME280;22147;52.388;13.390;2023-02-26T03:53:21;100886.59;;;-1.74;100.00
36092;BME280;22147;52.388;13.390;2023-02-26T03:56:19;100896.22;;;-1.83;100.00
36092;BME280;22147;52.388;13.390;2023-02-26T03:58:53;100899.16;;;-1.85;100.00
36092;BME280;22147;52.388;13.390;2023-02-26T04:01:35;100902.25;;;-1.81;100.00
36092;BME280;22147;52.388;13.390;2023-02-26T04:07:19;100914.78;;;-1.80;100.00
36092;BME280;22147;52.388;13.390;2023-02-26T04:09:51;100916.34;;;-1.84;100.00
36092;BME280;22147;52.388;13.390;2023-02-26T04:12:26;100919.16;;;-1.79;100.00
36092;BME280;22147;52.388;13.390;2023-02-26T04:14:57;100916.44;;;-1.79;100.00
36092;BME280;22147;52.388;13.390;2023-02-26T04:17:28;100922.38;;;-1.82;100.00
36092;BME280;22147;52.388;13.390;2023-02-26T04:19:59;100909.81;;;-1.83;100.00
36092;BME280;22147;52.388;13.390;2023-02-26T04:22:29;100919.66;;;-1.82;100.00
36092;BME280;22147;52.388;13.390;2023-02-26T04:24:59;100928.41;;;-1.80;100.00
36092;BME280;22147;52.388;13.390;2023-02-26T04:27:29;100923.66;;;-1.73;100.00
36092;BME280;22147;52.388;13.390;2023-02-26T04:29:59;100945.53;;;-1.68;100.00
36092;BME280;22147;52.388;13.390;2023-02-26T04:37:01;100940.38;;;-1.81;100.00
36092;BME280;22147;52.388;13.390;2023-02-26T04:39:31;100949.22;;;-1.74;100.00
36092;BME280;22147;52.388;13.390;2023-02-26T04:42:01;100948.16;;;-1.73;100.00
36092;BME280;22147;52.388;13.390;2023-02-26T04:44:34;100962.00;;;-1.74;100.00
36092;BME280;22147;52.388;13.390;2023-02-26T04:47:04;100962.97;;;-1.69;100.00
36092;BME280;22147;52.388;13.390;2023-02-26T04:49:34;100964.59;;;-1.68;100.00
36092;BME280;22147;52.388;13.390;2023-02-26T04:52:05;100969.31;;;-1.63;100.00
36092;BME280;22147;52.388;13.390;2023-02-26T04:54:36;100983.06;;;-1.58;100.00
36092;BME280;22147;52.388;13.390;2023-02-26T04:57:07;100973.00;;;-1.57;100.00
36092;BME280;22147;52.388;13.390;2023-02-26T04:59:37;100978.19;;;-1.56;100.00
36092;BME280;22147;52.388;13.390;2023-02-26T05:02:06;100978.06;;;-1.61;100.00
36092;BME280;22147;52.388;13.390;2023-02-26T05:04:34;100978.34;;;-1.62;100.00
36092;BME280;22147;52.388;13.390;2023-02-26T05:07:02;100990.88;;;-1.61;100.00
36092;BME280;22147;52.388;13.390;2023-02-26T05:09:31;100991.00;;;-1.56;100.00
36092;BME280;22147;52.388;13.390;2023-02-26T05:12:01;100990.66;;;-1.60;100.00
36092;BME280;22147;52.388;13.390;2023-02-26T05:14:31;100998.69;;;-1.53;100.00
36092;BME280;22147;52.388;13.390;2023-02-26T05:17:01;101002.22;;;-1.53;100.00
36092;BME280;22147;52.388;13.390;2023-02-26T05:19:31;101010.84;;;-1.44;100.00
36092;BME280;22147;52.388;13.390;2023-02-26T05:22:01;101015.16;;;-1.48;100.00
36092;BME280;22147;52.388;13.390;2023-02-26T05:24:32;101020.13;;;-1.57;100.00
36092;BME280;22147;52.388;13.390;2023-02-26T05:27:02;101015.25;;;-1.55;100.00
36092;BME280;22147;52.388;13.390;2023-02-26T05:29:32;101021.44;;;-1.59;100.00
36092;BME280;22147;52.388;13.390;2023-02-26T05:32:03;101033.16;;;-1.59;100.00
36092;BME280;22147;52.388;13.390;2023-02-26T05:34:33;101022.97;;;-1.64;100.00
36092;BME280;22147;52.388;13.390;2023-02-26T05:37:03;101031.50;;;-1.60;100.00
36092;BME280;22147;52.388;13.390;2023-02-26T05:39:33;101038.22;;;-1.51;100.00
36092;BME280;22147;52.388;13.390;2023-02-26T05:42:01;101040.84;;;-1.56;100.00
36092;BME280;22147;52.388;13.390;2023-02-26T05:44:30;101053.06;;;-1.58;100.00
36092;BME280;22147;52.388;13.390;2023-02-26T05:46:58;101045.13;;;-1.60;100.00
36092;BME280;22147;52.388;13.390;2023-02-26T05:49:27;101046.78;;;-1.59;100.00
36092;BME280;22147;52.388;13.390;2023-02-26T05:51:55;101063.13;;;-1.59;100.00
36092;BME280;22147;52.388;13.390;2023-02-26T05:54:24;101059.44;;;-1.53;100.00
36092;BME280;22147;52.388;13.390;2023-02-26T05:56:52;101067.00;;;-1.55;100.00
36092;BME280;22147;52.388;13.390;2023-02-26T05:59:21;101069.88;;;-1.50;100.00
36092;BME280;22147;52.388;13.390;2023-02-26T06:01:49;101064.56;;;-1.56;100.00
36092;BME280;22147;52.388;13.390;2023-02-26T06:04:17;101063.38;;;-1.60;100.00
36092;BME280;22147;52.388;13.390;2023-02-26T06:06:46;101076.63;;;-1.52;100.00
36092;BME280;22147;52.388;13.390;2023-02-26T06:09:14;101065.38;;;-1.56;100.00
36092;BME280;22147;52.388;13.390;2023-02-26T06:11:43;101080.41;;;-1.53;100.00
36092;BME280;22147;52.388;13.390;2023-02-26T06:14:11;101079.94;;;-1.50;100.00
36092;BME280;22147;52.388;13.390;2023-02-26T06:16:40;101083.50;;;-1.50;100.00
36092;BME280;22147;52.388;13.390;2023-02-26T06:19:08;101087.03;;;-1.49;100.00
36092;BME280;22147;52.388;13.390;2023-02-26T06:21:37;101087.28;;;-1.51;100.00
36092;BME280;22147;52.388;13.390;2023-02-26T06:24:05;101092.13;;;-1.41;100.00
36092;BME280;22147;52.388;13.390;2023-02-26T06:26:33;101094.84;;;-1.41;100.00
36092;BME280;22147;52.388;13.390;2023-02-26T06:29:02;101109.53;;;-1.42;100.00
36092;BME280;22147;52.388;13.390;2023-02-26T06:31:30;101104.06;;;-1.42;100.00
36092;BME280;22147;52.388;13.390;2023-02-26T06:33:59;101112.38;;;-1.37;100.00
36092;BME280;22147;52.388;13.390;2023-02-26T06:36:27;101118.88;;;-1.26;100.00
36092;BME280;22147;52.388;13.390;2023-02-26T06:38:56;101122.56;;;-1.32;100.00
36092;BME280;22147;52.388;13.390;2023-02-26T06:41:24;101122.31;;;-1.31;100.00
36092;BME280;22147;52.388;13.390;2023-02-26T06:43:52;101122.66;;;-1.27;100.00
36092;BME280;22147;52.388;13.390;2023-02-26T06:46:21;101121.09;;;-1.23;100.00
36092;BME280;22147;52.388;13.390;2023-02-26T06:48:49;101120.41;;;-1.18;100.00
36092;BME280;22147;52.388;13.390;2023-02-26T06:51:17;101136.63;;;-1.24;100.00
36092;BME280;22147;52.388;13.390;2023-02-26T06:53:46;101133.91;;;-1.24;100.00
36092;BME280;22147;52.388;13.390;2023-02-26T06:56:14;101136.38;;;-1.10;100.00
36092;BME280;22147;52.388;13.390;2023-02-26T06:58:43;101141.34;;;-1.07;100.00
36092;BME280;22147;52.388;13.390;2023-02-26T07:01:11;101146.31;;;-1.04;100.00
36092;BME280;22147;52.388;13.390;2023-02-26T07:03:40;101151.06;;;-0.99;100.00
36092;BME280;22147;52.388;13.390;2023-02-26T07:06:10;101159.66;;;-0.79;100.00
36092;BME280;22147;52.388;13.390;2023-02-26T07:08:55;101167.00;;;-0.68;100.00
36092;BME280;22147;52.388;13.390;2023-02-26T07:11:25;101169.06;;;-0.58;100.00
36092;BME280;22147;52.388;13.390;2023-02-26T07:13:56;101179.59;;;-0.50;100.00
36092;BME280;22147;52.388;13.390;2023-02-26T07:16:26;101189.44;;;-0.49;100.00
36092;BME280;22147;52.388;13.390;2023-02-26T07:18:56;101193.03;;;-0.60;100.00
36092;BME280;22147;52.388;13.390;2023-02-26T07:21:26;101200.25;;;-0.54;100.00
36092;BME280;22147;52.388;13.390;2023-02-26T07:23:56;101203.78;;;-0.42;100.00
36092;BME280;22147;52.388;13.390;2023-02-26T07:26:27;101198.47;;;-0.19;100.00
36092;BME280;22147;52.388;13.390;2023-02-26T07:28:57;101209.00;;;0.06;100.00
36092;BME280;22147;52.388;13.390;2023-02-26T07:31:27;101214.06;;;0.14;100.00
36092;BME280;22147;52.388;13.390;2023-02-26T07:33:57;101220.75;;;0.06;100.00
36092;BME280;22147;52.388;13.390;2023-02-26T07:36:28;101232.88;;;0.44;100.00
36092;BME280;22147;52.388;13.390;2023-02-26T07:38:58;101229.66;;;0.47;100.00
36092;BME280;22147;52.388;13.390;2023-02-26T07:41:28;101235.88;;;0.59;100.00
36092;BME280;22147;52.388;13.390;2023-02-26T07:43:58;101237.63;;;0.66;100.00
36092;BME280;22147;52.388;13.390;2023-02-26T07:46:28;101243.91;;;0.83;100.00
36092;BME280;22147;52.388;13.390;2023-02-26T07:48:59;101255.03;;;0.59;100.00
36092;BME280;22147;52.388;13.390;2023-02-26T07:51:29;101262.72;;;0.63;100.00
36092;BME280;22147;52.388;13.390;2023-02-26T07:54:01;101263.63;;;0.68;100.00
36092;BME280;22147;52.388;13.390;2023-02-26T07:56:31;101267.13;;;0.64;100.00
36092;BME280;22147;52.388;13.390;2023-02-26T07:59:00;101266.03;;;0.48;100.00
36092;BME280;22147;52.388;13.390;2023-02-26T08:01:28;101261.44;;;-0.09;100.00
36092;BME280;22147;52.388;13.390;2023-02-26T08:03:57;101269.75;;;-0.04;100.00
36092;BME280;22147;52.388;13.390;2023-02-26T08:06:25;101277.72;;;0.14;100.00
36092;BME280;22147;52.388;13.390;2023-02-26T08:08:53;101270.72;;;0.35;100.00
36092;BME280;22147;52.388;13.390;2023-02-26T08:11:22;101281.09;;;0.67;100.00
36092;BME280;22147;52.388;13.390;2023-02-26T08:13:50;101272.06;;;0.84;100.00
36092;BME280;22147;52.388;13.390;2023-02-26T08:16:19;101273.22;;;1.05;100.00
36092;BME280;22147;52.388;13.390;2023-02-26T08:18:47;101281.19;;;1.06;100.00
36092;BME280;22147;52.388;13.390;2023-02-26T08:21:16;101281.25;;;1.11;100.00
36092;BME280;22147;52.388;13.390;2023-02-26T08:23:44;101287.16;;;1.42;100.00
36092;BME280;22147;52.388;13.390;2023-02-26T08:26:12;101289.91;;;1.42;100.00
36092;BME280;22147;52.388;13.390;2023-02-26T08:28:41;101293.31;;;1.32;100.00
36092;BME280;22147;52.388;13.390;2023-02-26T08:31:13;101290.72;;;1.42;100.00
36092;BME280;22147;52.388;13.390;2023-02-26T08:33:41;101305.78;;;1.23;100.00
36092;BME280;22147;52.388;13.390;2023-02-26T08:36:10;101303.00;;;1.40;100.00
36092;BME280;22147;52.388;13.390;2023-02-26T08:38:41;101301.69;;;1.26;100.00
36092;BME280;22147;52.388;13.390;2023-02-26T08:41:11;101318.63;;;1.61;100.00
36092;BME280;22147;52.388;13.390;2023-02-26T08:43:41;101318.03;;;1.81;100.00
36092;BME280;22147;52.388;13.390;2023-02-26T08:46:11;101315.88;;;1.83;100.00
36092;BME280;22147;52.388;13.390;2023-02-26T08:48:41;101320.00;;;1.86;100.00
36092;BME280;22147;52.388;13.390;2023-02-26T08:51:11;101325.03;;;1.94;100.00
36092;BME280;22147;52.388;13.390;2023-02-26T08:53:42;101321.72;;;1.92;100.00
36092;BME280;22147;52.388;13.390;2023-02-26T08:56:13;101327.19;;;1.92;100.00
36092;BME280;22147;52.388;13.390;2023-02-26T08:58:44;101332.47;;;1.99;100.00
36092;BME280;22147;52.388;13.390;2023-02-26T09:01:14;101333.56;;;2.20;100.00
36092;BME280;22147;52.388;13.390;2023-02-26T09:03:44;101338.84;;;2.27;100.00
36092;BME280;22147;52.388;13.390;2023-02-26T09:06:14;101339.19;;;2.08;100.00
36092;BME280;22147;52.388;13.390;2023-02-26T09:08:44;101343.72;;;2.47;100.00
36092;BME280;22147;52.388;13.390;2023-02-26T09:11:14;101347.69;;;2.61;99.14
36092;BME280;22147;52.388;13.390;2023-02-26T09:13:44;101344.72;;;3.00;100.00
36092;BME280;22147;52.388;13.390;2023-02-26T09:16:14;101352.50;;;3.13;100.00
36092;BME280;22147;52.388;13.390;2023-02-26T09:18:45;101361.63;;;3.19;99.15
36092;BME280;22147;52.388;13.390;2023-02-26T09:21:16;101361.50;;;3.03;97.28
36092;BME280;22147;52.388;13.390;2023-02-26T09:23:46;101354.16;;;3.09;100.00
36092;BME280;22147;52.388;13.390;2023-02-26T09:26:16;101356.75;;;3.26;97.02
36092;BME280;22147;52.388;13.390;2023-02-26T09:28:46;101360.84;;;2.91;92.55
36092;BME280;22147;52.388;13.390;2023-02-26T09:31:17;101370.31;;;2.46;93.42
36092;BME280;22147;52.388;13.390;2023-02-26T09:33:47;101382.84;;;1.93;99.21
36092;BME280;22147;52.388;13.390;2023-02-26T09:36:17;101387.75;;;2.13;99.74
36092;BME280;22147;52.388;13.390;2023-02-26T09:38:47;101378.22;;;2.42;98.04
36092;BME280;22147;52.388;13.390;2023-02-26T09:41:49;101398.75;;;1.96;97.92
36092;BME280;22147;52.388;13.390;2023-02-26T09:44:37;101391.75;;;2.05;98.34
36092;BME280;22147;52.388;13.390;2023-02-26T09:47:44;101407.56;;;1.98;98.97
36092;BME280;22147;52.388;13.390;2023-02-26T09:50:51;101406.25;;;1.83;100.00
36092;BME280;22147;52.388;13.390;2023-02-26T09:53:28;101417.84;;;2.08;95.45
36092;BME280;22147;52.388;13.390;2023-02-26T09:56:07;101418.06;;;2.28;95.97
36092;BME280;22147;52.388;13.390;2023-02-26T09:58:53;101411.38;;;2.68;93.74
36092;BME280;22147;52.388;13.390;2023-02-26T10:01:39;101419.75;;;3.11;94.31
36092;BME280;22147;52.388;13.390;2023-02-26T10:04:38;101422.78;;;3.09;84.48
36092;BME280;22147;52.388;13.390;2023-02-26T10:11:01;101432.16;;;2.86;88.02
36092;BME280;22147;52.388;13.390;2023-02-26T10:14:13;101430.03;;;2.93;88.48
36092;BME280;22147;52.388;13.390;2023-02-26T10:16:58;101441.31;;;2.48;89.57
36092;BME280;22147;52.388;13.390;2023-02-26T10:19:42;101439.59;;;2.91;91.04
36092;BME280;22147;52.388;13.390;2023-02-26T10:22:35;101443.03;;;3.35;84.73
36092;BME280;22147;52.388;13.390;2023-02-26T10:25:27;101449.78;;;3.22;85.56
36092;BME280;22147;52.388;13.390;2023-02-26T10:34:57;101457.59;;;5.04;81.28
36092;BME280;22147;52.388;13.390;2023-02-26T10:37:57;101464.00;;;4.42;75.30
36092;BME280;22147;52.388;13.390;2023-02-26T10:41:01;101463.84;;;3.31;75.23
36092;BME280;22147;52.388;13.390;2023-02-26T10:43:53;101477.69;;;3.14;77.09
36092;BME280;22147;52.388;13.390;2023-02-26T10:52:31;101483.91;;;3.32;76.12
36092;BME280;22147;52.388;13.390;2023-02-26T10:55:34;101483.13;;;3.74;72.52
36092;BME280;22147;52.388;13.390;2023-02-26T10:58:15;101476.75;;;4.11;73.70
36092;BME280;22147;52.388;13.390;2023-02-26T11:00:49;101487.22;;;4.72;70.85
36092;BME280;22147;52.388;13.390;2023-02-26T11:04:08;101484.72;;;4.60;68.85
36092;BME280;22147;52.388;13.390;2023-02-26T11:06:52;101483.47;;;5.24;70.48
36092;BME280;22147;52.388;13.390;2023-02-26T11:09:35;101482.66;;;5.23;69.99
36092;BME280;22147;52.388;13.390;2023-02-26T11:14:47;101489.59;;;4.42;68.70
36092;BME280;22147;52.388;13.390;2023-02-26T11:17:27;101496.56;;;3.70;71.01
36092;BME280;22147;52.388;13.390;2023-02-26T11:20:15;101505.72;;;2.89;72.78
36092;BME280;22147;52.388;13.390;2023-02-26T11:22:54;101504.78;;;3.05;74.87
36092;BME280;22147;52.388;13.390;2023-02-26T11:25:31;101497.56;;;2.94;70.86
36092;BME280;22147;52.388;13.390;2023-02-26T11:28:28;101504.19;;;3.58;70.74
36092;BME280;22147;52.388;13.390;2023-02-26T11:31:16;101508.97;;;3.73;71.68
36092;BME280;22147;52.388;13.390;2023-02-26T11:33:59;101516.34;;;4.04;72.77
36092;BME280;22147;52.388;13.390;2023-02-26T11:36:39;101506.44;;;4.03;65.97
36092;BME280;22147;52.388;13.390;2023-02-26T11:39:23;101500.97;;;3.71;66.72
36092;BME280;22147;52.388;13.390;2023-02-26T11:42:00;101520.38;;;3.92;67.33
36092;BME280;22147;52.388;13.390;2023-02-26T11:44:38;101513.91;;;3.71;67.67
36092;BME280;22147;52.388;13.390;2023-02-26T11:47:25;101519.13;;;3.40;69.98
36092;BME280;22147;52.388;13.390;2023-02-26T11:50:17;101528.75;;;3.15;71.15
36092;BME280;22147;52.388;13.390;2023-02-26T11:53:04;101528.75;;;3.15;71.76
36092;BME280;22147;52.388;13.390;2023-02-26T11:55:38;101519.03;;;3.30;72.65
36092;BME280;22147;52.388;13.390;2023-02-26T11:58:22;101526.53;;;3.39;68.65
36092;BME280;22147;52.388;13.390;2023-02-26T12:00:57;101521.94;;;2.91;68.46
36092;BME280;22147;52.388;13.390;2023-02-26T12:03:35;101532.22;;;2.78;68.16
36092;BME280;22147;52.388;13.390;2023-02-26T12:06:22;101534.00;;;3.17;70.57
36092;BME280;22147;52.388;13.390;2023-02-26T12:08:55;101520.34;;;3.54;69.69
36092;BME280;22147;52.388;13.390;2023-02-26T12:11:47;101525.22;;;3.79;68.38
36092;BME280;22147;52.388;13.390;2023-02-26T12:37:41;101542.97;;;2.41;71.76
36092;BME280;22147;52.388;13.390;2023-02-26T12:43:45;101545.03;;;2.29;73.86
36092;BME280;22147;52.388;13.390;2023-02-26T12:49:53;101554.75;;;1.86;72.26
36092;BME280;22147;52.388;13.390;2023-02-26T12:53:13;101547.66;;;1.68;72.31
36092;BME280;22147;52.388;13.390;2023-02-26T13:12:16;101563.84;;;2.64;70.18
36092;BME280;22147;52.388;13.390;2023-02-26T13:21:25;101576.38;;;2.38;70.18
36092;BME280;22147;52.388;13.390;2023-02-26T13:24:11;101577.44;;;2.98;69.24
36092;BME280;22147;52.388;13.390;2023-02-26T13:26:47;101574.16;;;3.50;67.27
36092;BME280;22147;52.388;13.390;2023-02-26T13:29:29;101573.72;;;3.63;66.66
36092;BME280;22147;52.388;13.390;2023-02-26T13:32:27;101574.69;;;3.79;64.84
36092;BME280;22147;52.388;13.390;2023-02-26T13:35:16;101587.44;;;3.36;67.59
36092;BME280;22147;52.388;13.390;2023-02-26T13:37:55;101583.38;;;3.12;66.89
36092;BME280;22147;52.388;13.390;2023-02-26T13:47:14;101590.50;;;2.47;68.82
36092;BME280;22147;52.388;13.390;2023-02-26T13:51:46;101590.72;;;2.84;72.12
36092;BME280;22147;52.388;13.390;2023-02-26T13:54:40;101595.56;;;2.99;71.22
36092;BME280;22147;52.388;13.390;2023-02-26T13:57:51;101609.06;;;2.61;70.58
36092;BME280;22147;52.388;13.390;2023-02-26T14:00:45;101602.69;;;2.56;69.92
36092;BME280;22147;52.388;13.390;2023-02-26T14:06:07;101604.19;;;2.08;69.58
36092;BME280;22147;52.388;13.390;2023-02-26T14:08:56;101599.53;;;2.08;71.39
36092;BME280;22147;52.388;13.390;2023-02-26T14:12:21;101600.69;;;2.12;70.48
36092;BME280;22147;52.388;13.390;2023-02-26T14:15:26;101607.16;;;2.23;72.54
36092;BME280;22147;52.388;13.390;2023-02-26T14:18:24;101610.22;;;2.43;72.91
36092;BME280;22147;52.388;13.390;2023-02-26T14:24:09;101625.34;;;2.68;67.40
36092;BME280;22147;52.388;13.390;2023-02-26T14:26:50;101620.63;;;2.63;66.16
36092;BME280;22147;52.388;13.390;2023-02-26T14:29:57;101622.75;;;2.39;65.97
36092;BME280;22147;52.388;13.390;2023-02-26T14:32:44;101618.66;;;2.42;67.67
36092;BME280;22147;52.388;13.390;2023-02-26T14:35:45;101618.00;;;2.35;68.31
36092;BME280;22147;52.388;13.390;2023-02-26T14:38:37;101617.19;;;2.34;68.45
36092;BME280;22147;52.388;13.390;2023-02-26T14:41:25;101623.44;;;2.13;68.95
36092;BME280;22147;52.388;13.390;2023-02-26T14:44:13;101627.56;;;2.15;66.95
36092;BME280;22147;52.388;13.390;2023-02-26T14:46:51;101621.28;;;2.15;69.99
36092;BME280;22147;52.388;13.390;2023-02-26T14:49:31;101630.53;;;2.31;69.28
36092;BME280;22147;52.388;13.390;2023-02-26T15:05:31;101637.72;;;2.32;67.60
36092;BME280;22147;52.388;13.390;2023-02-26T15:17:39;101645.69;;;2.16;67.98
36092;BME280;22147;52.388;13.390;2023-02-26T15:23:38;101645.16;;;1.86;67.18
36092;BME280;22147;52.388;13.390;2023-02-26T15:26:28;101653.47;;;1.74;65.68
36092;BME280;22147;52.388;13.390;2023-02-26T15:29:09;101652.88;;;1.72;64.51
36092;BME280;22147;52.388;13.390;2023-02-26T15:31:56;101666.78;;;1.53;65.55
36092;BME280;22147;52.388;13.390;2023-02-26T15:34:32;101666.81;;;1.41;64.28
36092;BME280;22147;52.388;13.390;2023-02-26T15:37:02;101661.63;;;1.28;65.11
36092;BME280;22147;52.388;13.390;2023-02-26T15:39:32;101662.75;;;1.15;65.72
36092;BME280;22147;52.388;13.390;2023-02-26T15:42:03;101668.94;;;1.11;65.56
36092;BME280;22147;52.388;13.390;2023-02-26T15:44:34;101665.25;;;1.05;69.01
36092;BME280;22147;52.388;13.390;2023-02-26T15:47:15;101667.25;;;1.10;68.33
36092;BME280;22147;52.388;13.390;2023-02-26T15:49:48;101665.25;;;1.17;67.91
36092;BME280;22147;52.388;13.390;2023-02-26T15:52:22;101665.69;;;1.26;69.57
36092;BME280;22147;52.388;13.390;2023-02-26T15:55:02;101665.69;;;1.26;69.52
36092;BME280;22147;52.388;13.390;2023-02-26T15:57:32;101656.38;;;1.27;70.55
36092;BME280;22147;52.388;13.390;2023-02-26T16:00:11;101665.03;;;1.35;71.08
36092;BME280;22147;52.388;13.390;2023-02-26T16:02:48;101670.19;;;1.32;69.85
36092;BME280;22147;52.388;13.390;2023-02-26T16:05:19;101669.38;;;1.31;70.42
36092;BME280;22147;52.388;13.390;2023-02-26T16:07:49;101667.59;;;1.25;71.73
36092;BME280;22147;52.388;13.390;2023-02-26T16:10:42;101670.56;;;1.24;69.28
36092;BME280;22147;52.388;13.390;2023-02-26T16:13:30;101675.00;;;1.13;68.66